Time;durP1;ratioP1;P1;durP2;ratioP2;P2;SDS_P1;SDS_P2;PMS_P1;PMS_P2;Temp;Humidity;BMP_temperature;BMP_pressure;BME280_temperature;BME280_humidity;BME280_pressure;Samples;Min_cycle;Max_cycle;Signal;HPM_P1;HPM_P2
2022/03/25 00:01:07;;;;;;;31.13;13.57;;;;;;;;;;5002730;28;20932;-59
2022/03/25 00:03:33;;;;;;;32.03;13.52;;;;;;;;;;5001773;28;20066;-59
2022/03/25 00:05:58;;;;;;;30.70;13.35;;;;;;;;;;4996128;28;20038;-59
2022/03/25 00:08:24;;;;;;;29.25;13.27;;;;;;;;;;4988801;28;20425;-59
2022/03/25 00:10:49;;;;;;;28.98;12.45;;;;;;;;;;5002426;28;20025;-58
2022/03/25 00:13:15;;;;;;;29.67;13.18;;;;;;;;;;5000645;28;20037;-59
2022/03/25 00:15:40;;;;;;;28.25;12.65;;;;;;;;;;5001079;28;20540;-58
2022/03/25 00:18:06;;;;;;;32.75;14.10;;;;;;;;;;4993059;28;20052;-59
2022/03/25 00:20:32;;;;;;;34.88;14.38;;;;;;;;;;4998627;28;20025;-59
2022/03/25 00:22:57;;;;;;;30.58;13.68;;;;;;;;;;5001872;28;20056;-59
2022/03/25 00:25:23;;;;;;;31.88;13.77;;;;;;;;;;5002815;28;20108;-59
2022/03/25 00:27:48;;;;;;;29.45;13.57;;;;;;;;;;4994949;28;20060;-59
2022/03/25 00:30:14;;;;;;;31.52;13.32;;;;;;;;;;5000972;28;20508;-58
2022/03/25 00:32:40;;;;;;;29.95;13.70;;;;;;;;;;5001330;28;20076;-58
2022/03/25 00:35:06;;;;;;;35.03;14.45;;;;;;;;;;5001992;28;20160;-59
2022/03/25 00:37:32;;;;;;;31.17;14.05;;;;;;;;;;4995364;28;20046;-59
2022/03/25 00:39:57;;;;;;;32.28;14.13;;;;;;;;;;5003196;28;20026;-60
2022/03/25 00:42:24;;;;;;;32.25;14.48;;;;;;;;;;4992259;28;20361;-59
2022/03/25 00:44:50;;;;;;;35.78;14.43;;;;;;;;;;4995956;28;20060;-59
2022/03/25 00:47:15;;;;;;;33.38;14.43;;;;;;;;;;4995834;28;20069;-59
2022/03/25 00:49:42;;;;;;;33.55;14.10;;;;;;;;;;5001719;28;20056;-59
2022/03/25 00:52:07;;;;;;;30.88;14.15;;;;;;;;;;4997099;28;20030;-59
2022/03/25 00:54:33;;;;;;;34.60;14.50;;;;;;;;;;5000090;28;20112;-59
2022/03/25 00:56:58;;;;;;;33.28;14.02;;;;;;;;;;4999248;28;20104;-59
2022/03/25 00:59:24;;;;;;;30.73;13.70;;;;;;;;;;5005086;28;20364;-59
2022/03/25 01:01:49;;;;;;;33.72;14.65;;;;;;;;;;4995252;28;20025;-60
2022/03/25 01:04:16;;;;;;;31.13;13.65;;;;;;;;;;4991591;28;20476;-59
2022/03/25 01:06:42;;;;;;;33.65;13.77;;;;;;;;;;4992817;28;20060;-59
2022/03/25 01:09:07;;;;;;;34.42;14.20;;;;;;;;;;5000860;28;20104;-59
2022/03/25 01:11:35;;;;;;;29.65;13.38;;;;;;;;;;4996331;28;20030;-59
2022/03/25 01:14:01;;;;;;;37.85;15.25;;;;;;;;;;4989739;28;20030;-59
2022/03/25 01:16:27;;;;;;;31.58;14.15;;;;;;;;;;4989028;28;20041;-59
2022/03/25 01:18:52;;;;;;;33.47;14.27;;;;;;;;;;4993502;28;20029;-59
2022/03/25 01:21:18;;;;;;;34.60;14.52;;;;;;;;;;4995123;28;20026;-58
2022/03/25 01:23:45;;;;;;;33.67;14.55;;;;;;;;;;5004328;28;20374;-59
2022/03/25 01:26:10;;;;;;;34.35;14.65;;;;;;;;;;4999403;28;20057;-59
2022/03/25 01:28:36;;;;;;;32.95;14.15;;;;;;;;;;5003113;28;20064;-59
2022/03/25 01:31:03;;;;;;;30.50;14.82;;;;;;;;;;4995780;28;20037;-59
2022/03/25 01:33:29;;;;;;;31.33;13.40;;;;;;;;;;5000743;28;20066;-59
2022/03/25 01:35:55;;;;;;;33.40;14.63;;;;;;;;;;5003102;28;20037;-59
2022/03/25 01:38:21;;;;;;;38.13;14.57;;;;;;;;;;5000235;28;20042;-59
2022/03/25 01:40:47;;;;;;;32.40;14.98;;;;;;;;;;5007928;28;20048;-58
2022/03/25 01:43:12;;;;;;;34.10;13.73;;;;;;;;;;5004863;28;20022;-59
2022/03/25 01:45:38;;;;;;;27.92;13.48;;;;;;;;;;5004078;28;20026;-59
2022/03/25 01:48:11;;;;;;;31.83;14.60;;;;;;;;;;5002101;28;20038;-59
2022/03/25 01:50:39;;;;;;;35.33;14.18;;;;;;;;;;5006756;28;20033;-59
2022/03/25 01:53:10;;;;;;;33.22;14.63;;;;;;;;;;5002341;28;20037;-59
2022/03/25 01:55:37;;;;;;;31.98;14.25;;;;;;;;;;5000660;28;20022;-59
2022/03/25 01:58:05;;;;;;;35.58;15.60;;;;;;;;;;5005464;28;20033;-59
2022/03/25 02:00:30;;;;;;;34.88;15.35;;;;;;;;;;5008942;28;20088;-58
2022/03/25 02:02:56;;;;;;;34.78;15.00;;;;;;;;;;4997093;28;20034;-58
2022/03/25 02:05:21;;;;;;;34.72;14.57;;;;;;;;;;5005251;28;20396;-59
2022/03/25 02:07:47;;;;;;;33.45;14.43;;;;;;;;;;4998212;28;20444;-59
2022/03/25 02:10:13;;;;;;;34.08;14.88;;;;;;;;;;4997077;28;20030;-60
2022/03/25 02:12:39;;;;;;;33.72;15.90;;;;;;;;;;5000762;28;20030;-60
2022/03/25 02:15:06;;;;;;;34.75;13.63;;;;;;;;;;4999623;28;20404;-58
2022/03/25 02:17:32;;;;;;;34.05;14.20;;;;;;;;;;5003735;28;20207;-58
2022/03/25 02:19:57;;;;;;;37.67;14.88;;;;;;;;;;5006877;28;20018;-59
2022/03/25 02:22:23;;;;;;;32.42;14.55;;;;;;;;;;5003100;28;20046;-59
2022/03/25 02:24:49;;;;;;;32.80;14.80;;;;;;;;;;5002385;28;20100;-58
2022/03/25 02:27:17;;;;;;;30.20;14.57;;;;;;;;;;5005802;28;20025;-59
2022/03/25 02:29:45;;;;;;;34.08;14.48;;;;;;;;;;5009562;28;20030;-58
2022/03/25 02:32:11;;;;;;;35.08;14.07;;;;;;;;;;5010597;28;20061;-59
2022/03/25 02:34:37;;;;;;;31.23;13.98;;;;;;;;;;4997846;28;20491;-60
2022/03/25 02:37:04;;;;;;;32.28;14.63;;;;;;;;;;5003524;28;20309;-58
2022/03/25 02:39:29;;;;;;;37.50;15.35;;;;;;;;;;5004662;28;20040;-58
2022/03/25 02:41:55;;;;;;;34.55;13.63;;;;;;;;;;5000282;28;20482;-58
2022/03/25 02:44:21;;;;;;;32.67;12.95;;;;;;;;;;4997812;28;20414;-58
2022/03/25 02:46:46;;;;;;;34.45;14.65;;;;;;;;;;5008003;28;20033;-59
2022/03/25 02:49:11;;;;;;;41.30;17.23;;;;;;;;;;5014930;28;20467;-59
2022/03/25 02:51:37;;;;;;;39.78;17.23;;;;;;;;;;4995402;28;20069;-59
2022/03/25 02:54:03;;;;;;;34.38;14.63;;;;;;;;;;5002203;28;20022;-58
2022/03/25 02:56:28;;;;;;;32.92;13.82;;;;;;;;;;5009250;28;20030;-59
2022/03/25 02:58:54;;;;;;;35.05;14.40;;;;;;;;;;4995583;28;20089;-58
2022/03/25 03:01:20;;;;;;;33.22;14.25;;;;;;;;;;5004368;28;20043;-59
2022/03/25 03:03:45;;;;;;;35.03;13.90;;;;;;;;;;4994577;28;20372;-58
2022/03/25 03:06:11;;;;;;;34.20;14.70;;;;;;;;;;4999338;28;20073;-58
2022/03/25 03:08:37;;;;;;;32.17;13.73;;;;;;;;;;5006851;28;20028;-59
2022/03/25 03:11:02;;;;;;;32.55;14.00;;;;;;;;;;5006653;28;20431;-59
2022/03/25 03:13:28;;;;;;;31.88;14.52;;;;;;;;;;5002506;28;20022;-59
2022/03/25 03:15:54;;;;;;;33.10;14.48;;;;;;;;;;4997815;28;20058;-58
2022/03/25 03:18:20;;;;;;;38.45;14.95;;;;;;;;;;5000847;28;20503;-58
2022/03/25 03:20:46;;;;;;;33.33;13.82;;;;;;;;;;5012982;28;20094;-59
2022/03/25 03:23:12;;;;;;;33.67;13.63;;;;;;;;;;5004556;28;20030;-60
2022/03/25 03:25:38;;;;;;;32.70;14.30;;;;;;;;;;5002618;28;20052;-58
2022/03/25 03:28:04;;;;;;;32.80;14.82;;;;;;;;;;5002957;28;20108;-60
2022/03/25 03:30:30;;;;;;;35.25;15.00;;;;;;;;;;5006740;28;20037;-59
2022/03/25 03:32:57;;;;;;;31.02;13.98;;;;;;;;;;4998909;28;20022;-59
2022/03/25 03:35:26;;;;;;;32.53;13.75;;;;;;;;;;5006104;28;20570;-58
2022/03/25 03:37:52;;;;;;;32.03;14.18;;;;;;;;;;4997493;28;20431;-58
2022/03/25 03:40:17;;;;;;;35.13;14.80;;;;;;;;;;4997404;28;20385;-58
2022/03/25 03:42:45;;;;;;;32.35;14.32;;;;;;;;;;5006332;28;20018;-58
2022/03/25 03:45:11;;;;;;;37.42;14.55;;;;;;;;;;4997528;28;20033;-59
2022/03/25 03:47:39;;;;;;;37.08;14.68;;;;;;;;;;5002243;28;20137;-59
2022/03/25 03:50:06;;;;;;;35.22;15.52;;;;;;;;;;5002461;28;20056;-58
2022/03/25 03:52:31;;;;;;;35.08;14.50;;;;;;;;;;5001468;28;20026;-58
2022/03/25 03:54:57;;;;;;;29.40;13.52;;;;;;;;;;4993755;28;20076;-58
2022/03/25 03:57:23;;;;;;;35.47;14.48;;;;;;;;;;4998862;28;20061;-59
2022/03/25 03:59:48;;;;;;;36.47;13.80;;;;;;;;;;4997160;28;20115;-59
2022/03/25 04:02:14;;;;;;;32.88;14.00;;;;;;;;;;4995581;28;20053;-58
2022/03/25 04:04:39;;;;;;;32.83;14.60;;;;;;;;;;5006886;28;20515;-58
2022/03/25 04:07:05;;;;;;;34.28;15.18;;;;;;;;;;5003799;28;20033;-57
2022/03/25 04:09:30;;;;;;;30.45;13.77;;;;;;;;;;5007046;28;20711;-59
2022/03/25 04:11:56;;;;;;;35.97;14.93;;;;;;;;;;5010150;28;20516;-58
2022/03/25 04:14:21;;;;;;;33.40;14.02;;;;;;;;;;5002176;28;20487;-59
2022/03/25 04:16:47;;;;;;;30.95;14.10;;;;;;;;;;5004941;28;20022;-59
2022/03/25 04:19:13;;;;;;;35.80;15.20;;;;;;;;;;5003062;28;20466;-59
2022/03/25 04:21:39;;;;;;;51.63;16.10;;;;;;;;;;4995904;28;20041;-58
2022/03/25 04:24:05;;;;;;;33.72;14.55;;;;;;;;;;5006105;28;20064;-58
2022/03/25 04:26:30;;;;;;;33.47;14.90;;;;;;;;;;5004891;28;20044;-58
2022/03/25 04:28:56;;;;;;;34.55;14.43;;;;;;;;;;4999693;28;20062;-58
2022/03/25 04:31:21;;;;;;;32.78;14.88;;;;;;;;;;5005618;28;20037;-59
2022/03/25 04:33:47;;;;;;;35.25;14.48;;;;;;;;;;5008341;28;20075;-59
2022/03/25 04:36:14;;;;;;;36.25;14.75;;;;;;;;;;5005787;28;20353;-58
2022/03/25 04:38:40;;;;;;;35.40;15.00;;;;;;;;;;5004485;28;20120;-59
2022/03/25 04:41:08;;;;;;;36.95;14.25;;;;;;;;;;4999760;28;20022;-59
2022/03/25 04:43:33;;;;;;;35.70;14.57;;;;;;;;;;5001394;28;20134;-58
2022/03/25 04:45:58;;;;;;;32.67;13.88;;;;;;;;;;5004116;28;20049;-58
2022/03/25 04:48:24;;;;;;;37.25;14.45;;;;;;;;;;4999652;28;20090;-58
2022/03/25 04:50:49;;;;;;;32.92;15.00;;;;;;;;;;5004672;28;20025;-59
2022/03/25 04:53:15;;;;;;;46.72;17.38;;;;;;;;;;5008004;28;20380;-58
2022/03/25 04:55:40;;;;;;;34.92;15.65;;;;;;;;;;5001106;28;20053;-58
2022/03/25 04:58:06;;;;;;;34.78;14.20;;;;;;;;;;5007286;28;20029;-59
2022/03/25 05:00:31;;;;;;;39.80;15.63;;;;;;;;;;4997953;28;20029;-59
2022/03/25 05:02:56;;;;;;;34.90;14.90;;;;;;;;;;5002044;28;20312;-58
2022/03/25 05:05:22;;;;;;;37.35;15.98;;;;;;;;;;4996587;28;20042;-58
2022/03/25 05:07:50;;;;;;;44.92;17.08;;;;;;;;;;4995684;28;20387;-58
2022/03/25 05:10:15;;;;;;;40.08;15.82;;;;;;;;;;5001592;28;20644;-58
2022/03/25 05:12:42;;;;;;;37.58;16.00;;;;;;;;;;5002776;28;20034;-58
2022/03/25 05:15:08;;;;;;;38.28;14.65;;;;;;;;;;5002459;28;20022;-57
2022/03/25 05:17:34;;;;;;;34.28;14.48;;;;;;;;;;5002950;28;20068;-58
2022/03/25 05:20:04;;;;;;;41.45;15.43;;;;;;;;;;5003015;28;20105;-58
2022/03/25 05:22:30;;;;;;;39.70;15.95;;;;;;;;;;5002585;28;20030;-58
2022/03/25 05:24:55;;;;;;;37.25;15.95;;;;;;;;;;5005001;28;20056;-58
2022/03/25 05:27:21;;;;;;;44.10;16.65;;;;;;;;;;5002219;28;20041;-58
2022/03/25 05:29:46;;;;;;;34.17;14.75;;;;;;;;;;5008951;28;20456;-58
2022/03/25 05:32:11;;;;;;;38.95;15.10;;;;;;;;;;5001422;28;20038;-58
2022/03/25 05:34:37;;;;;;;39.53;16.65;;;;;;;;;;5004185;28;20412;-58
2022/03/25 05:37:03;;;;;;;40.42;17.35;;;;;;;;;;4995953;28;20399;-58
2022/03/25 05:39:28;;;;;;;39.75;16.08;;;;;;;;;;5000253;28;20065;-58
2022/03/25 05:41:53;;;;;;;40.00;16.90;;;;;;;;;;4997572;28;20033;-58
2022/03/25 05:44:19;;;;;;;42.53;16.17;;;;;;;;;;5004253;28;20033;-58
2022/03/25 05:46:45;;;;;;;42.85;17.45;;;;;;;;;;5007935;28;20128;-58
2022/03/25 05:49:10;;;;;;;40.63;16.13;;;;;;;;;;5011948;28;20040;-57
2022/03/25 05:51:36;;;;;;;41.88;16.83;;;;;;;;;;5007541;28;20026;-58
2022/03/25 05:54:01;;;;;;;40.70;17.02;;;;;;;;;;5007883;28;20496;-58
2022/03/25 05:56:27;;;;;;;42.95;16.05;;;;;;;;;;5004953;28;20072;-58
2022/03/25 05:58:52;;;;;;;37.22;14.90;;;;;;;;;;5000835;28;20080;-59
2022/03/25 06:01:18;;;;;;;42.53;16.33;;;;;;;;;;4998805;28;20026;-59
2022/03/25 06:03:44;;;;;;;40.55;16.38;;;;;;;;;;5000933;28;20396;-59
2022/03/25 06:06:09;;;;;;;38.38;15.32;;;;;;;;;;5006281;28;20030;-58
2022/03/25 06:08:35;;;;;;;38.05;15.88;;;;;;;;;;5001484;28;20031;-58
2022/03/25 06:11:01;;;;;;;39.90;14.63;;;;;;;;;;4998068;28;20034;-58
2022/03/25 06:13:27;;;;;;;42.30;17.95;;;;;;;;;;4997980;28;20033;-57
2022/03/25 06:15:53;;;;;;;42.42;17.60;;;;;;;;;;5003661;28;20087;-58
2022/03/25 06:18:19;;;;;;;52.47;18.50;;;;;;;;;;4996665;28;20045;-59
2022/03/25 06:20:44;;;;;;;43.33;17.70;;;;;;;;;;5002633;28;20030;-58
2022/03/25 06:23:10;;;;;;;41.83;16.60;;;;;;;;;;5004143;28;20510;-58
2022/03/25 06:25:35;;;;;;;44.08;17.20;;;;;;;;;;5006882;28;20030;-59
2022/03/25 06:28:03;;;;;;;43.67;17.40;;;;;;;;;;5005600;28;20388;-59
2022/03/25 06:30:37;;;;;;;42.90;18.08;;;;;;;;;;5003550;28;20500;-58
2022/03/25 06:33:05;;;;;;;40.97;16.73;;;;;;;;;;5002335;28;20030;-59
2022/03/25 06:35:30;;;;;;;46.17;19.42;;;;;;;;;;5010019;28;20025;-58
2022/03/25 06:37:56;;;;;;;43.22;17.27;;;;;;;;;;4998139;28;20392;-58
2022/03/25 06:40:22;;;;;;;42.85;18.73;;;;;;;;;;4803176;28;20048;-58
2022/03/25 06:42:49;;;;;;;49.47;17.98;;;;;;;;;;4849437;28;20048;-58
2022/03/25 06:45:16;;;;;;;44.67;19.00;;;;;;;;;;4806589;28;20745;-58
2022/03/25 06:47:42;;;;;;;44.67;18.17;;;;;;;;;;4802863;28;20057;-59
2022/03/25 06:50:10;;;;;;;46.00;18.63;;;;;;;;;;4816888;28;20148;-59
2022/03/25 06:52:36;;;;;;;46.75;18.63;;;;;;;;;;4807497;28;20885;-58
2022/03/25 06:55:01;;;;;;;26.83;11.68;;;;;;;;;;4805254;28;21615;-56
2022/03/25 06:57:27;;;;;;;41.20;13.55;;;;;;;;;;4810804;28;20500;-56
2022/03/25 06:59:53;;;;;;;42.90;17.13;;;;;;;;;;4805142;28;20831;-58
2022/03/25 07:02:19;;;;;;;38.22;17.67;;;;;;;;;;4807471;28;20042;-58
2022/03/25 07:04:44;;;;;;;40.17;18.05;;;;;;;;;;4802132;28;20091;-58
2022/03/25 07:07:11;;;;;;;47.97;18.50;;;;;;;;;;4807386;28;20709;-59
2022/03/25 07:09:37;;;;;;;40.65;18.35;;;;;;;;;;4802865;28;21182;-58
2022/03/25 07:12:06;;;;;;;44.75;19.02;;;;;;;;;;4802906;28;21323;-58
2022/03/25 07:14:32;;;;;;;41.78;16.55;;;;;;;;;;4807489;28;20687;-59
2022/03/25 07:16:57;;;;;;;46.35;17.88;;;;;;;;;;4809072;28;20200;-59
2022/03/25 07:19:26;;;;;;;42.35;19.23;;;;;;;;;;4804937;28;21699;-58
2022/03/25 07:21:52;;;;;;;41.58;16.77;;;;;;;;;;4808997;28;20951;-58
2022/03/25 07:24:18;;;;;;;43.45;17.92;;;;;;;;;;4800845;28;20201;-58
2022/03/25 07:26:43;;;;;;;47.08;18.50;;;;;;;;;;4800995;28;20791;-58
2022/03/25 07:29:10;;;;;;;43.88;17.52;;;;;;;;;;4803275;28;21099;-57
2022/03/25 07:31:36;;;;;;;41.35;17.30;;;;;;;;;;4803624;28;21035;-58
2022/03/25 07:34:02;;;;;;;44.05;18.58;;;;;;;;;;4803934;28;21903;-58
2022/03/25 07:36:27;;;;;;;37.20;17.35;;;;;;;;;;4799349;28;20034;-61
2022/03/25 07:38:53;;;;;;;40.33;17.73;;;;;;;;;;4787424;28;20069;-58
2022/03/25 07:41:19;;;;;;;45.25;18.73;;;;;;;;;;4800726;28;21525;-58
2022/03/25 07:43:45;;;;;;;44.58;18.42;;;;;;;;;;4802104;28;20857;-58
2022/03/25 07:46:11;;;;;;;44.47;19.60;;;;;;;;;;4807639;28;20636;-58
2022/03/25 07:48:36;;;;;;;43.67;18.75;;;;;;;;;;4798554;28;20665;-58
2022/03/25 07:51:03;;;;;;;49.08;20.38;;;;;;;;;;4807014;28;20429;-58
2022/03/25 07:53:28;;;;;;;46.72;18.80;;;;;;;;;;4806353;28;20042;-58
2022/03/25 07:55:54;;;;;;;40.75;17.63;;;;;;;;;;4803995;28;20160;-58
2022/03/25 07:58:21;;;;;;;44.45;18.77;;;;;;;;;;4803988;28;20091;-58
2022/03/25 08:00:50;;;;;;;43.15;18.60;;;;;;;;;;4798950;28;20531;-58
2022/03/25 08:03:16;;;;;;;45.53;17.83;;;;;;;;;;4806367;28;20058;-58
2022/03/25 08:05:42;;;;;;;46.03;18.38;;;;;;;;;;4808478;28;21387;-58
2022/03/25 08:08:09;;;;;;;41.20;16.30;;;;;;;;;;4803728;28;20652;-59
2022/03/25 08:10:35;;;;;;;44.47;17.63;;;;;;;;;;4800998;28;20041;-59
2022/03/25 08:13:02;;;;;;;40.60;18.48;;;;;;;;;;4806416;28;20139;-59
2022/03/25 08:15:29;;;;;;;41.53;18.23;;;;;;;;;;4802660;28;20077;-58
2022/03/25 08:18:00;;;;;;;49.45;19.13;;;;;;;;;;4804461;28;20151;-58
2022/03/25 08:20:37;;;;;;;45.28;19.33;;;;;;;;;;4803962;28;20511;-58
2022/03/25 08:23:05;;;;;;;43.22;19.00;;;;;;;;;;4805195;28;20040;-58
2022/03/25 08:28:19;;;;;;;47.00;19.95;;;;;;;;;;4800373;28;20147;-59
2022/03/25 08:30:46;;;;;;;50.35;19.13;;;;;;;;;;4801779;28;22441;-58
2022/03/25 08:33:12;;;;;;;43.65;18.55;;;;;;;;;;4806808;28;20084;-59
2022/03/25 08:35:39;;;;;;;47.38;19.05;;;;;;;;;;4817230;28;21405;-60
2022/03/25 08:38:06;;;;;;;41.53;18.45;;;;;;;;;;4802482;28;20139;-58
2022/03/25 08:40:34;;;;;;;47.83;19.13;;;;;;;;;;4803561;28;20058;-59
2022/03/25 08:43:04;;;;;;;46.03;18.73;;;;;;;;;;4802759;28;21475;-59
2022/03/25 08:45:30;;;;;;;43.17;18.67;;;;;;;;;;4802325;28;20181;-59
2022/03/25 08:47:56;;;;;;;51.53;19.23;;;;;;;;;;4802854;28;20848;-59
2022/03/25 08:50:22;;;;;;;49.20;20.65;;;;;;;;;;4802551;28;20045;-59
2022/03/25 08:52:48;;;;;;;45.55;19.60;;;;;;;;;;4805933;28;20045;-60
2022/03/25 08:55:16;;;;;;;47.28;19.67;;;;;;;;;;4802645;28;20045;-59
2022/03/25 08:57:41;;;;;;;60.50;23.27;;;;;;;;;;4798006;28;20141;-58
2022/03/25 09:00:10;;;;;;;51.85;20.17;;;;;;;;;;4804011;28;20042;-59
2022/03/25 09:02:40;;;;;;;49.58;21.80;;;;;;;;;;4805343;28;21897;-59
2022/03/25 09:05:07;;;;;;;54.83;19.80;;;;;;;;;;4802138;28;21706;-59
2022/03/25 09:07:34;;;;;;;49.88;21.85;;;;;;;;;;4800351;28;20609;-59
2022/03/25 09:09:59;;;;;;;51.85;22.13;;;;;;;;;;4800345;28;20052;-60
2022/03/25 09:12:25;;;;;;;50.55;21.52;;;;;;;;;;4800550;28;20161;-59
2022/03/25 09:14:50;;;;;;;47.45;21.70;;;;;;;;;;4803912;28;21722;-60
2022/03/25 09:17:16;;;;;;;53.28;21.63;;;;;;;;;;4799764;28;20038;-59
2022/03/25 09:19:43;;;;;;;61.03;24.30;;;;;;;;;;4813243;28;20687;-59
2022/03/25 09:22:09;;;;;;;61.35;26.60;;;;;;;;;;4799905;28;20612;-58
2022/03/25 09:24:34;;;;;;;58.20;24.80;;;;;;;;;;4804599;28;20071;-59
2022/03/25 09:27:00;;;;;;;55.88;24.05;;;;;;;;;;4803231;28;20251;-58
2022/03/25 09:29:25;;;;;;;57.95;23.77;;;;;;;;;;4799223;28;20034;-59
2022/03/25 09:31:51;;;;;;;50.67;23.40;;;;;;;;;;4803002;28;20175;-59
2022/03/25 09:37:01;;;;;;;56.33;25.70;;;;;;;;;;4805668;28;20092;-58
2022/03/25 09:39:27;;;;;;;54.55;23.52;;;;;;;;;;4814127;28;20037;-59
2022/03/25 09:41:53;;;;;;;54.25;24.08;;;;;;;;;;4803264;28;20511;-59
2022/03/25 09:44:19;;;;;;;57.72;24.23;;;;;;;;;;4805766;28;20042;-58
2022/03/25 09:46:45;;;;;;;60.58;25.23;;;;;;;;;;4800311;28;20038;-59
2022/03/25 09:49:12;;;;;;;54.63;24.52;;;;;;;;;;4804778;28;20661;-59
2022/03/25 09:51:38;;;;;;;56.60;25.35;;;;;;;;;;4799814;28;20357;-59
2022/03/25 09:54:08;;;;;;;58.08;26.35;;;;;;;;;;4797325;28;20629;-59
2022/03/25 09:56:34;;;;;;;63.63;25.35;;;;;;;;;;4819285;28;20160;-59
2022/03/25 09:59:00;;;;;;;57.17;24.23;;;;;;;;;;4807646;28;20595;-59
2022/03/25 10:01:26;;;;;;;52.55;23.67;;;;;;;;;;4806814;28;20155;-59
2022/03/25 10:03:51;;;;;;;52.35;23.48;;;;;;;;;;4805271;28;21961;-59
2022/03/25 10:06:17;;;;;;;59.72;26.45;;;;;;;;;;4808115;28;21408;-59
2022/03/25 10:08:44;;;;;;;60.42;26.33;;;;;;;;;;4803168;28;21063;-59
2022/03/25 10:11:24;;;;;;;58.05;25.88;;;;;;;;;;4802962;28;21707;-60
2022/03/25 10:14:18;;;;;;;62.45;26.17;;;;;;;;;;4805084;28;20139;-59
2022/03/25 10:16:45;;;;;;;54.53;24.83;;;;;;;;;;4803433;28;20034;-60
2022/03/25 10:19:21;;;;;;;60.53;26.13;;;;;;;;;;4807569;28;20091;-60
2022/03/25 10:22:02;;;;;;;63.88;25.05;;;;;;;;;;4806119;28;21842;-61
2022/03/25 10:24:53;;;;;;;57.67;26.42;;;;;;;;;;4807583;28;20755;-60
2022/03/25 10:27:28;;;;;;;50.38;24.33;;;;;;;;;;4808035;28;21511;-59
2022/03/25 10:29:56;;;;;;;53.15;24.63;;;;;;;;;;4805391;28;20293;-59
2022/03/25 10:32:26;;;;;;;57.63;25.15;;;;;;;;;;4806123;28;20038;-59
2022/03/25 10:35:00;;;;;;;;;;;;;;;;;;4805666;28;20060;-59
2022/03/25 10:37:27;;;;;;;54.33;25.63;;;;;;;;;;4806605;28;19925;-60
2022/03/25 10:39:52;;;;;;;50.42;26.23;;;;;;;;;;4805079;28;20192;-60
2022/03/25 10:42:18;;;;;;;61.50;27.77;;;;;;;;;;4806353;28;20618;-59
2022/03/25 10:44:43;;;;;;;56.58;26.95;;;;;;;;;;4806484;28;22112;-59
2022/03/25 10:47:14;;;;;;;56.13;27.30;;;;;;;;;;4805022;28;20889;-59
2022/03/25 10:49:43;;;;;;;53.47;25.55;;;;;;;;;;4800746;28;20069;-59
2022/03/25 10:52:21;;;;;;;58.47;27.55;;;;;;;;;;4799872;28;20041;-60
2022/03/25 10:54:47;;;;;;;58.80;27.45;;;;;;;;;;4804866;28;21099;-59
2022/03/25 10:57:16;;;;;;;61.95;28.25;;;;;;;;;;4806651;28;21456;-59
2022/03/25 10:59:42;;;;;;;61.13;29.58;;;;;;;;;;4804210;28;20456;-59
2022/03/25 11:02:08;;;;;;;62.35;26.77;;;;;;;;;;4807603;28;20046;-59
2022/03/25 11:04:35;;;;;;;53.80;26.63;;;;;;;;;;4802892;28;20567;-60
2022/03/25 11:07:01;;;;;;;56.10;27.85;;;;;;;;;;4807771;28;20108;-59
2022/03/25 11:09:27;;;;;;;59.22;27.45;;;;;;;;;;4805977;28;20042;-59
2022/03/25 11:11:54;;;;;;;57.45;28.50;;;;;;;;;;4805339;28;20049;-59
2022/03/25 11:14:20;;;;;;;59.75;28.80;;;;;;;;;;4806922;28;20446;-60
2022/03/25 11:16:47;;;;;;;62.03;27.08;;;;;;;;;;4806606;28;20843;-60
2022/03/25 11:19:14;;;;;;;53.55;27.23;;;;;;;;;;4806144;28;21107;-59
2022/03/25 11:21:42;;;;;;;56.75;28.05;;;;;;;;;;4806577;28;21855;-60
2022/03/25 11:24:39;;;;;;;59.57;28.10;;;;;;;;;;4804037;28;20771;-60
2022/03/25 11:27:38;;;;;;;54.67;27.83;;;;;;;;;;4807511;28;20964;-60
2022/03/25 11:30:09;;;;;;;58.95;27.58;;;;;;;;;;4782915;28;21069;-60
2022/03/25 11:32:47;;;;;;;57.80;28.77;;;;;;;;;;4805489;28;20042;-60
2022/03/25 11:35:20;;;;;;;59.85;27.67;;;;;;;;;;4802515;28;20503;-60
2022/03/25 11:37:45;;;;;;;53.35;27.58;;;;;;;;;;4809758;28;20487;-60
2022/03/25 11:40:20;;;;;;;50.35;27.50;;;;;;;;;;4805238;28;20042;-60
2022/03/25 11:42:50;;;;;;;55.38;27.13;;;;;;;;;;4804611;28;20052;-61
2022/03/25 11:45:22;;;;;;;53.88;26.98;;;;;;;;;;4804826;28;20115;-60
2022/03/25 11:48:13;;;;;;;51.35;27.17;;;;;;;;;;4806500;28;20884;-60
2022/03/25 11:50:43;;;;;;;52.90;26.90;;;;;;;;;;4786630;28;20220;-61
2022/03/25 11:53:11;;;;;;;50.10;26.52;;;;;;;;;;4801392;28;20035;-61
2022/03/25 11:56:09;;;;;;;52.70;27.27;;;;;;;;;;4832603;28;20069;-61
2022/03/25 11:58:57;;;;;;;47.40;25.83;;;;;;;;;;4802482;28;20756;-61
2022/03/25 12:01:23;;;;;;;48.58;26.02;;;;;;;;;;4817721;28;21171;-61
2022/03/25 12:03:52;;;;;;;45.88;25.48;;;;;;;;;;4808612;28;20044;-60
2022/03/25 12:06:19;;;;;;;45.83;23.95;;;;;;;;;;4805631;28;20042;-60
2022/03/25 12:09:19;;;;;;;44.85;23.23;;;;;;;;;;4803508;28;20471;-60
2022/03/25 12:11:50;;;;;;;43.50;23.70;;;;;;;;;;4798707;28;21528;-61
2022/03/25 12:14:17;;;;;;;47.00;24.00;;;;;;;;;;4801836;28;20042;-60
2022/03/25 12:16:45;;;;;;;41.67;22.67;;;;;;;;;;4803053;28;20785;-61
2022/03/25 12:19:26;;;;;;;50.72;25.45;;;;;;;;;;4805829;28;20648;-61
2022/03/25 12:21:57;;;;;;;42.17;23.05;;;;;;;;;;4800497;28;21282;-61
2022/03/25 12:24:24;;;;;;;42.47;23.92;;;;;;;;;;4808250;28;21292;-61
2022/03/25 12:27:06;;;;;;;46.95;24.00;;;;;;;;;;4805913;28;21177;-61
2022/03/25 12:29:39;;;;;;;44.35;25.38;;;;;;;;;;4869167;28;20404;-61
2022/03/25 12:32:07;;;;;;;43.38;24.67;;;;;;;;;;4808534;28;22023;-60
2022/03/25 12:34:57;;;;;;;42.53;23.13;;;;;;;;;;4804038;28;20065;-61
2022/03/25 12:37:32;;;;;;;44.40;24.35;;;;;;;;;;4805326;28;21394;-61
2022/03/25 12:40:21;;;;;;;40.35;23.30;;;;;;;;;;4806246;28;21027;-60
2022/03/25 12:42:51;;;;;;;42.10;23.80;;;;;;;;;;4801352;28;20741;-60
2022/03/25 12:45:17;;;;;;;42.80;23.58;;;;;;;;;;4800991;28;20050;-61
2022/03/25 12:47:43;;;;;;;41.35;23.15;;;;;;;;;;4805127;28;21137;-61
2022/03/25 12:50:14;;;;;;;41.22;23.27;;;;;;;;;;4804090;28;21326;-61
2022/03/25 12:52:39;;;;;;;44.10;24.45;;;;;;;;;;4803623;28;20044;-61
2022/03/25 12:55:09;;;;;;;46.50;23.67;;;;;;;;;;4804928;28;20099;-61
2022/03/25 12:57:36;;;;;;;39.50;23.23;;;;;;;;;;4801351;28;20780;-61
2022/03/25 13:00:07;;;;;;;39.78;23.05;;;;;;;;;;4804610;28;20843;-61
2022/03/25 13:02:41;;;;;;;44.25;24.05;;;;;;;;;;4808148;28;20817;-60
2022/03/25 13:05:17;;;;;;;45.47;25.38;;;;;;;;;;4800393;28;21531;-60
2022/03/25 13:07:44;;;;;;;44.83;25.83;;;;;;;;;;4804628;28;21856;-61
2022/03/25 13:10:11;;;;;;;46.72;25.23;;;;;;;;;;4802092;28;20042;-61
2022/03/25 13:12:52;;;;;;;44.80;25.30;;;;;;;;;;4804941;28;21136;-62
2022/03/25 13:15:18;;;;;;;43.38;24.45;;;;;;;;;;4805635;28;20159;-61
2022/03/25 13:17:47;;;;;;;45.30;25.30;;;;;;;;;;4806520;28;20042;-62
2022/03/25 13:20:16;;;;;;;48.55;28.08;;;;;;;;;;4802869;28;20038;-61
2022/03/25 13:22:56;;;;;;;49.17;26.55;;;;;;;;;;4805940;28;20375;-61
2022/03/25 13:25:46;;;;;;;50.88;26.73;;;;;;;;;;4806951;28;20131;-61
2022/03/25 13:28:35;;;;;;;44.88;25.30;;;;;;;;;;4809569;28;20426;-61
2022/03/25 13:31:03;;;;;;;42.55;25.08;;;;;;;;;;4817894;28;20044;-61
2022/03/25 13:33:42;;;;;;;47.95;26.40;;;;;;;;;;4812030;28;21596;-61
2022/03/25 13:36:08;;;;;;;45.83;26.08;;;;;;;;;;4807226;28;20143;-61
2022/03/25 13:38:36;;;;;;;45.85;25.45;;;;;;;;;;4817292;28;20038;-62
2022/03/25 13:41:09;;;;;;;45.20;25.45;;;;;;;;;;4808199;28;20160;-60
2022/03/25 13:43:37;;;;;;;43.70;24.23;;;;;;;;;;4803135;28;20034;-61
2022/03/25 13:46:08;;;;;;;44.67;25.08;;;;;;;;;;4802565;28;20757;-61
2022/03/25 13:48:47;;;;;;;40.20;24.35;;;;;;;;;;4806151;28;20298;-62
2022/03/25 13:51:31;;;;;;;37.75;22.10;;;;;;;;;;4804947;28;20042;-61
2022/03/25 13:54:02;;;;;;;36.63;22.38;;;;;;;;;;4807285;28;20034;-61
2022/03/25 13:56:38;;;;;;;43.65;25.33;;;;;;;;;;4808280;28;20166;-61
2022/03/25 13:59:05;;;;;;;42.22;24.90;;;;;;;;;;4806846;28;21519;-61
2022/03/25 14:01:35;;;;;;;43.63;24.17;;;;;;;;;;4806774;28;20026;-62
2022/03/25 14:04:05;;;;;;;47.33;25.92;;;;;;;;;;4807776;28;20456;-61
2022/03/25 14:06:35;;;;;;;48.65;25.05;;;;;;;;;;4807283;28;20121;-61
2022/03/25 14:09:02;;;;;;;43.53;24.17;;;;;;;;;;4807173;28;20077;-62
2022/03/25 14:11:33;;;;;;;41.55;22.90;;;;;;;;;;4813407;28;21751;-62
2022/03/25 14:14:03;;;;;;;47.67;24.42;;;;;;;;;;4809148;28;20038;-61
2022/03/25 14:16:34;;;;;;;37.80;22.48;;;;;;;;;;4810414;28;20172;-62
2022/03/25 14:19:00;;;;;;;58.80;27.38;;;;;;;;;;4806393;28;22021;-62
2022/03/25 14:21:31;;;;;;;53.80;27.10;;;;;;;;;;4804419;28;20045;-61
2022/03/25 14:26:44;;;;;;;63.65;26.70;;;;;;;;;;4805636;28;20137;-61
2022/03/25 14:29:09;;;;;;;50.53;25.90;;;;;;;;;;4807077;28;20038;-62
2022/03/25 14:31:39;;;;;;;48.53;26.65;;;;;;;;;;4808223;28;20374;-62